sensor_id;sensor_type;location;lat;lon;timestamp;P1;durP1;ratioP1;P2;durP2;ratioP2
8349;SDS011;60699;48.946;8.412;2023-08-06T00:01:30;2.33;;;2.13;;
8349;SDS011;60699;48.946;8.412;2023-08-06T00:03:57;3.50;;;2.33;;
8349;SDS011;60699;48.946;8.412;2023-08-06T00:06:25;2.23;;;2.03;;
8349;SDS011;60699;48.946;8.412;2023-08-06T00:08:52;2.40;;;2.20;;
8349;SDS011;60699;48.946;8.412;2023-08-06T00:11:20;3.33;;;2.17;;
8349;SDS011;60699;48.946;8.412;2023-08-06T00:13:47;2.00;;;1.90;;
8349;SDS011;60699;48.946;8.412;2023-08-06T00:16:15;1.83;;;1.73;;
8349;SDS011;60699;48.946;8.412;2023-08-06T00:18:42;2.60;;;1.90;;
8349;SDS011;60699;48.946;8.412;2023-08-06T00:21:09;2.37;;;2.00;;
8349;SDS011;60699;48.946;8.412;2023-08-06T00:23:37;4.40;;;2.07;;
8349;SDS011;60699;48.946;8.412;2023-08-06T00:26:04;2.40;;;2.20;;
8349;SDS011;60699;48.946;8.412;2023-08-06T00:28:31;2.37;;;2.17;;
8349;SDS011;60699;48.946;8.412;2023-08-06T00:30:58;3.07;;;2.87;;
8349;SDS011;60699;48.946;8.412;2023-08-06T00:33:27;3.10;;;2.43;;
8349;SDS011;60699;48.946;8.412;2023-08-06T00:35:54;2.30;;;2.10;;
8349;SDS011;60699;48.946;8.412;2023-08-06T00:38:21;2.20;;;2.00;;
8349;SDS011;60699;48.946;8.412;2023-08-06T00:40:48;2.40;;;2.20;;
8349;SDS011;60699;48.946;8.412;2023-08-06T00:43:16;2.50;;;2.30;;
8349;SDS011;60699;48.946;8.412;2023-08-06T00:45:43;2.43;;;2.00;;
8349;SDS011;60699;48.946;8.412;2023-08-06T00:48:10;2.67;;;2.33;;
8349;SDS011;60699;48.946;8.412;2023-08-06T00:50:39;2.90;;;2.23;;
8349;SDS011;60699;48.946;8.412;2023-08-06T00:53:06;2.00;;;1.80;;
8349;SDS011;60699;48.946;8.412;2023-08-06T00:55:33;2.03;;;1.70;;
8349;SDS011;60699;48.946;8.412;2023-08-06T00:58:00;2.27;;;2.17;;
8349;SDS011;60699;48.946;8.412;2023-08-06T01:00:28;2.23;;;2.10;;
8349;SDS011;60699;48.946;8.412;2023-08-06T01:02:55;4.40;;;2.13;;
8349;SDS011;60699;48.946;8.412;2023-08-06T01:05:22;1.77;;;1.67;;
8349;SDS011;60699;48.946;8.412;2023-08-06T01:07:55;2.50;;;1.90;;
8349;SDS011;60699;48.946;8.412;2023-08-06T01:10:28;1.63;;;1.53;;
8349;SDS011;60699;48.946;8.412;2023-08-06T01:13:01;1.70;;;1.60;;
8349;SDS011;60699;48.946;8.412;2023-08-06T01:15:32;4.10;;;1.90;;
8349;SDS011;60699;48.946;8.412;2023-08-06T01:18:00;3.00;;;2.00;;
8349;SDS011;60699;48.946;8.412;2023-08-06T01:20:29;2.50;;;2.30;;
8349;SDS011;60699;48.946;8.412;2023-08-06T01:22:56;2.40;;;1.73;;
8349;SDS011;60699;48.946;8.412;2023-08-06T01:25:25;1.63;;;1.53;;
8349;SDS011;60699;48.946;8.412;2023-08-06T01:27:56;2.17;;;1.97;;
8349;SDS011;60699;48.946;8.412;2023-08-06T01:30:27;2.40;;;2.03;;
8349;SDS011;60699;48.946;8.412;2023-08-06T01:32:57;2.13;;;1.90;;
8349;SDS011;60699;48.946;8.412;2023-08-06T01:35:25;4.03;;;1.90;;
8349;SDS011;60699;48.946;8.412;2023-08-06T01:37:54;2.20;;;2.07;;
8349;SDS011;60699;48.946;8.412;2023-08-06T01:40:21;2.20;;;2.00;;
8349;SDS011;60699;48.946;8.412;2023-08-06T01:42:48;1.63;;;1.53;;
8349;SDS011;60699;48.946;8.412;2023-08-06T01:45:15;2.03;;;1.80;;
8349;SDS011;60699;48.946;8.412;2023-08-06T01:47:42;2.80;;;1.90;;
8349;SDS011;60699;48.946;8.412;2023-08-06T01:50:09;2.23;;;1.90;;
8349;SDS011;60699;48.946;8.412;2023-08-06T01:52:36;2.20;;;1.83;;
8349;SDS011;60699;48.946;8.412;2023-08-06T01:55:05;2.30;;;2.10;;
8349;SDS011;60699;48.946;8.412;2023-08-06T01:57:32;2.30;;;2.10;;
8349;SDS011;60699;48.946;8.412;2023-08-06T01:59:59;3.67;;;2.37;;
8349;SDS011;60699;48.946;8.412;2023-08-06T02:02:26;4.90;;;1.83;;
8349;SDS011;60699;48.946;8.412;2023-08-06T02:04:53;1.77;;;1.67;;
8349;SDS011;60699;48.946;8.412;2023-08-06T02:07:20;2.30;;;2.10;;
8349;SDS011;60699;48.946;8.412;2023-08-06T02:09:47;2.67;;;1.83;;
8349;SDS011;60699;48.946;8.412;2023-08-06T02:12:15;1.90;;;1.80;;
8349;SDS011;60699;48.946;8.412;2023-08-06T02:14:42;2.63;;;1.93;;
8349;SDS011;60699;48.946;8.412;2023-08-06T02:17:09;2.63;;;1.97;;
8349;SDS011;60699;48.946;8.412;2023-08-06T02:19:36;2.20;;;2.00;;
8349;SDS011;60699;48.946;8.412;2023-08-06T02:22:04;2.30;;;2.07;;
8349;SDS011;60699;48.946;8.412;2023-08-06T02:24:31;2.63;;;2.03;;
8349;SDS011;60699;48.946;8.412;2023-08-06T02:26:58;3.53;;;1.80;;
8349;SDS011;60699;48.946;8.412;2023-08-06T02:29:26;2.03;;;1.80;;
8349;SDS011;60699;48.946;8.412;2023-08-06T02:31:53;1.97;;;1.50;;
8349;SDS011;60699;48.946;8.412;2023-08-06T02:34:20;2.13;;;1.93;;
8349;SDS011;60699;48.946;8.412;2023-08-06T02:36:47;5.70;;;2.20;;
8349;SDS011;60699;48.946;8.412;2023-08-06T02:39:14;2.10;;;1.90;;
8349;SDS011;60699;48.946;8.412;2023-08-06T02:41:41;4.17;;;2.30;;
8349;SDS011;60699;48.946;8.412;2023-08-06T02:44:08;1.60;;;1.50;;
8349;SDS011;60699;48.946;8.412;2023-08-06T02:46:37;3.00;;;2.10;;
8349;SDS011;60699;48.946;8.412;2023-08-06T02:49:04;2.10;;;2.00;;
8349;SDS011;60699;48.946;8.412;2023-08-06T02:51:31;2.60;;;1.90;;
8349;SDS011;60699;48.946;8.412;2023-08-06T02:53:58;3.70;;;2.07;;
8349;SDS011;60699;48.946;8.412;2023-08-06T02:56:25;3.30;;;2.37;;
8349;SDS011;60699;48.946;8.412;2023-08-06T02:58:52;3.20;;;2.43;;
8349;SDS011;60699;48.946;8.412;2023-08-06T03:01:19;2.80;;;1.80;;
8349;SDS011;60699;48.946;8.412;2023-08-06T03:03:49;2.40;;;2.20;;
8349;SDS011;60699;48.946;8.412;2023-08-06T03:06:16;3.23;;;1.90;;
8349;SDS011;60699;48.946;8.412;2023-08-06T03:08:43;1.60;;;1.50;;
8349;SDS011;60699;48.946;8.412;2023-08-06T03:11:10;2.53;;;2.30;;
8349;SDS011;60699;48.946;8.412;2023-08-06T03:13:37;3.20;;;2.70;;
8349;SDS011;60699;48.946;8.412;2023-08-06T03:16:04;3.60;;;2.83;;
8349;SDS011;60699;48.946;8.412;2023-08-06T03:18:31;2.20;;;2.00;;
8349;SDS011;60699;48.946;8.412;2023-08-06T03:21:00;2.37;;;2.03;;
8349;SDS011;60699;48.946;8.412;2023-08-06T03:23:27;1.80;;;1.70;;
8349;SDS011;60699;48.946;8.412;2023-08-06T03:25:54;1.50;;;1.40;;
8349;SDS011;60699;48.946;8.412;2023-08-06T03:28:21;1.93;;;1.63;;
8349;SDS011;60699;48.946;8.412;2023-08-06T03:30:48;1.70;;;1.60;;
8349;SDS011;60699;48.946;8.412;2023-08-06T03:33:15;2.30;;;1.20;;
8349;SDS011;60699;48.946;8.412;2023-08-06T03:35:42;2.03;;;1.83;;
8349;SDS011;60699;48.946;8.412;2023-08-06T03:38:10;3.10;;;1.50;;
8349;SDS011;60699;48.946;8.412;2023-08-06T03:40:37;2.10;;;1.90;;
8349;SDS011;60699;48.946;8.412;2023-08-06T03:43:04;2.90;;;1.50;;
8349;SDS011;60699;48.946;8.412;2023-08-06T03:45:31;3.23;;;1.60;;
8349;SDS011;60699;48.946;8.412;2023-08-06T03:47:58;1.50;;;1.40;;
8349;SDS011;60699;48.946;8.412;2023-08-06T03:50:25;2.80;;;1.90;;
8349;SDS011;60699;48.946;8.412;2023-08-06T03:52:52;4.90;;;1.50;;
8349;SDS011;60699;48.946;8.412;2023-08-06T03:55:21;1.67;;;1.40;;
8349;SDS011;60699;48.946;8.412;2023-08-06T03:57:48;3.67;;;1.80;;
8349;SDS011;60699;48.946;8.412;2023-08-06T04:00:15;2.00;;;1.37;;
8349;SDS011;60699;48.946;8.412;2023-08-06T04:02:42;1.50;;;1.40;;
8349;SDS011;60699;48.946;8.412;2023-08-06T04:05:09;4.40;;;1.27;;
8349;SDS011;60699;48.946;8.412;2023-08-06T04:07:36;2.40;;;1.77;;
8349;SDS011;60699;48.946;8.412;2023-08-06T04:10:04;1.43;;;1.23;;
8349;SDS011;60699;48.946;8.412;2023-08-06T04:12:32;1.90;;;1.37;;
8349;SDS011;60699;48.946;8.412;2023-08-06T04:15:02;1.77;;;1.13;;
8349;SDS011;60699;48.946;8.412;2023-08-06T04:17:29;1.33;;;1.10;;
8349;SDS011;60699;48.946;8.412;2023-08-06T04:19:56;1.73;;;1.63;;
8349;SDS011;60699;48.946;8.412;2023-08-06T04:22:24;3.10;;;1.33;;
8349;SDS011;60699;48.946;8.412;2023-08-06T04:24:51;7.80;;;2.03;;
8349;SDS011;60699;48.946;8.412;2023-08-06T04:27:18;1.40;;;1.30;;
8349;SDS011;60699;48.946;8.412;2023-08-06T04:29:47;2.00;;;1.50;;
8349;SDS011;60699;48.946;8.412;2023-08-06T04:32:14;3.10;;;1.57;;
8349;SDS011;60699;48.946;8.412;2023-08-06T04:34:41;4.50;;;1.40;;
8349;SDS011;60699;48.946;8.412;2023-08-06T04:37:08;1.57;;;1.30;;
8349;SDS011;60699;48.946;8.412;2023-08-06T04:39:35;3.70;;;1.57;;
8349;SDS011;60699;48.946;8.412;2023-08-06T04:42:02;3.73;;;1.77;;
8349;SDS011;60699;48.946;8.412;2023-08-06T04:44:29;2.73;;;1.63;;
8349;SDS011;60699;48.946;8.412;2023-08-06T04:46:58;2.03;;;1.83;;
8349;SDS011;60699;48.946;8.412;2023-08-06T04:49:25;1.60;;;1.50;;
8349;SDS011;60699;48.946;8.412;2023-08-06T04:51:52;2.73;;;1.63;;
8349;SDS011;60699;48.946;8.412;2023-08-06T04:54:19;1.57;;;1.33;;
8349;SDS011;60699;48.946;8.412;2023-08-06T04:56:46;1.50;;;1.40;;
8349;SDS011;60699;48.946;8.412;2023-08-06T04:59:13;1.80;;;1.50;;
8349;SDS011;60699;48.946;8.412;2023-08-06T05:01:40;3.03;;;1.90;;
8349;SDS011;60699;48.946;8.412;2023-08-06T05:04:08;1.80;;;1.70;;
8349;SDS011;60699;48.946;8.412;2023-08-06T05:06:35;2.60;;;1.63;;
8349;SDS011;60699;48.946;8.412;2023-08-06T05:09:03;1.53;;;1.43;;
8349;SDS011;60699;48.946;8.412;2023-08-06T05:11:31;1.87;;;1.43;;
8349;SDS011;60699;48.946;8.412;2023-08-06T05:13:58;1.70;;;1.50;;
8349;SDS011;60699;48.946;8.412;2023-08-06T05:16:25;1.80;;;1.30;;
8349;SDS011;60699;48.946;8.412;2023-08-06T05:18:52;1.30;;;1.20;;
8349;SDS011;60699;48.946;8.412;2023-08-06T05:21:20;2.17;;;1.40;;
8349;SDS011;60699;48.946;8.412;2023-08-06T05:23:47;3.20;;;1.40;;
8349;SDS011;60699;48.946;8.412;2023-08-06T05:26:14;3.77;;;1.60;;
8349;SDS011;60699;48.946;8.412;2023-08-06T05:28:43;3.20;;;1.40;;
8349;SDS011;60699;48.946;8.412;2023-08-06T05:31:10;1.30;;;1.20;;
8349;SDS011;60699;48.946;8.412;2023-08-06T05:33:37;2.73;;;1.40;;
8349;SDS011;60699;48.946;8.412;2023-08-06T05:36:04;1.63;;;1.23;;
8349;SDS011;60699;48.946;8.412;2023-08-06T05:38:33;1.60;;;1.20;;
8349;SDS011;60699;48.946;8.412;2023-08-06T05:41:00;3.83;;;1.07;;
8349;SDS011;60699;48.946;8.412;2023-08-06T05:43:27;2.20;;;1.03;;
8349;SDS011;60699;48.946;8.412;2023-08-06T05:45:54;1.60;;;1.50;;
8349;SDS011;60699;48.946;8.412;2023-08-06T05:48:21;0.97;;;0.90;;
8349;SDS011;60699;48.946;8.412;2023-08-06T05:50:49;1.03;;;1.03;;
8349;SDS011;60699;48.946;8.412;2023-08-06T05:53:16;1.30;;;1.20;;
8349;SDS011;60699;48.946;8.412;2023-08-06T05:55:47;1.20;;;1.10;;
8349;SDS011;60699;48.946;8.412;2023-08-06T05:58:14;3.17;;;1.50;;
8349;SDS011;60699;48.946;8.412;2023-08-06T06:00:41;1.43;;;1.23;;
8349;SDS011;60699;48.946;8.412;2023-08-06T06:03:08;2.00;;;1.10;;
8349;SDS011;60699;48.946;8.412;2023-08-06T06:05:37;1.03;;;0.90;;
8349;SDS011;60699;48.946;8.412;2023-08-06T06:08:04;1.27;;;1.07;;
8349;SDS011;60699;48.946;8.412;2023-08-06T06:10:31;1.10;;;1.00;;
8349;SDS011;60699;48.946;8.412;2023-08-06T06:13:00;1.10;;;1.00;;
8349;SDS011;60699;48.946;8.412;2023-08-06T06:15:27;0.90;;;0.90;;
8349;SDS011;60699;48.946;8.412;2023-08-06T06:17:54;1.33;;;1.03;;
8349;SDS011;60699;48.946;8.412;2023-08-06T06:20:21;4.00;;;1.00;;
8349;SDS011;60699;48.946;8.412;2023-08-06T06:22:48;0.80;;;0.80;;
8349;SDS011;60699;48.946;8.412;2023-08-06T06:25:15;1.80;;;0.90;;
8349;SDS011;60699;48.946;8.412;2023-08-06T06:27:42;0.90;;;0.90;;
8349;SDS011;60699;48.946;8.412;2023-08-06T06:30:11;1.63;;;1.00;;
8349;SDS011;60699;48.946;8.412;2023-08-06T06:32:39;1.53;;;1.40;;
8349;SDS011;60699;48.946;8.412;2023-08-06T06:35:07;1.53;;;1.10;;
8349;SDS011;60699;48.946;8.412;2023-08-06T06:37:34;1.60;;;1.00;;
8349;SDS011;60699;48.946;8.412;2023-08-06T06:40:01;1.10;;;1.00;;
8349;SDS011;60699;48.946;8.412;2023-08-06T06:42:28;1.00;;;0.90;;
8349;SDS011;60699;48.946;8.412;2023-08-06T06:44:55;0.90;;;0.90;;
8349;SDS011;60699;48.946;8.412;2023-08-06T06:47:24;1.07;;;1.00;;
8349;SDS011;60699;48.946;8.412;2023-08-06T06:49:51;1.90;;;1.10;;
8349;SDS011;60699;48.946;8.412;2023-08-06T06:52:18;1.00;;;0.90;;
8349;SDS011;60699;48.946;8.412;2023-08-06T06:54:45;2.23;;;1.07;;
8349;SDS011;60699;48.946;8.412;2023-08-06T06:57:12;1.00;;;0.90;;
8349;SDS011;60699;48.946;8.412;2023-08-06T06:59:39;0.97;;;0.87;;
8349;SDS011;60699;48.946;8.412;2023-08-06T07:02:06;1.10;;;1.10;;
8349;SDS011;60699;48.946;8.412;2023-08-06T07:04:34;1.87;;;0.90;;
8349;SDS011;60699;48.946;8.412;2023-08-06T07:07:02;1.10;;;1.00;;
8349;SDS011;60699;48.946;8.412;2023-08-06T07:09:29;1.50;;;1.20;;
8349;SDS011;60699;48.946;8.412;2023-08-06T07:11:56;0.97;;;0.90;;
8349;SDS011;60699;48.946;8.412;2023-08-06T07:14:24;1.10;;;1.00;;
8349;SDS011;60699;48.946;8.412;2023-08-06T07:16:51;1.00;;;0.90;;
8349;SDS011;60699;48.946;8.412;2023-08-06T07:19:18;1.13;;;1.00;;
8349;SDS011;60699;48.946;8.412;2023-08-06T07:21:46;1.13;;;1.03;;
8349;SDS011;60699;48.946;8.412;2023-08-06T07:24:13;0.90;;;0.90;;
8349;SDS011;60699;48.946;8.412;2023-08-06T07:26:40;0.80;;;0.80;;
8349;SDS011;60699;48.946;8.412;2023-08-06T07:29:07;0.90;;;0.90;;
8349;SDS011;60699;48.946;8.412;2023-08-06T07:31:34;0.80;;;0.80;;
8349;SDS011;60699;48.946;8.412;2023-08-06T07:34:01;1.00;;;0.90;;
8349;SDS011;60699;48.946;8.412;2023-08-06T07:36:29;0.90;;;0.90;;
8349;SDS011;60699;48.946;8.412;2023-08-06T07:38:58;0.80;;;0.80;;
8349;SDS011;60699;48.946;8.412;2023-08-06T07:41:25;0.90;;;0.90;;
8349;SDS011;60699;48.946;8.412;2023-08-06T07:43:52;0.87;;;0.87;;
8349;SDS011;60699;48.946;8.412;2023-08-06T07:46:19;0.80;;;0.80;;
8349;SDS011;60699;48.946;8.412;2023-08-06T07:48:46;1.00;;;0.90;;
8349;SDS011;60699;48.946;8.412;2023-08-06T07:51:13;1.00;;;0.80;;
8349;SDS011;60699;48.946;8.412;2023-08-06T07:53:40;0.80;;;0.80;;
8349;SDS011;60699;48.946;8.412;2023-08-06T07:56:08;0.90;;;0.70;;
8349;SDS011;60699;48.946;8.412;2023-08-06T07:58:35;1.00;;;0.90;;
8349;SDS011;60699;48.946;8.412;2023-08-06T08:01:02;1.30;;;1.20;;
8349;SDS011;60699;48.946;8.412;2023-08-06T08:03:29;1.10;;;1.00;;
8349;SDS011;60699;48.946;8.412;2023-08-06T08:05:56;4.73;;;1.10;;
8349;SDS011;60699;48.946;8.412;2023-08-06T08:08:24;1.03;;;0.93;;
8349;SDS011;60699;48.946;8.412;2023-08-06T08:10:51;0.90;;;0.90;;
8349;SDS011;60699;48.946;8.412;2023-08-06T08:13:21;1.10;;;1.10;;
8349;SDS011;60699;48.946;8.412;2023-08-06T08:15:49;1.00;;;0.90;;
8349;SDS011;60699;48.946;8.412;2023-08-06T08:18:16;0.90;;;0.77;;
8349;SDS011;60699;48.946;8.412;2023-08-06T08:20:43;0.80;;;0.80;;
8349;SDS011;60699;48.946;8.412;2023-08-06T08:23:10;0.70;;;0.70;;
8349;SDS011;60699;48.946;8.412;2023-08-06T08:25:37;0.90;;;0.90;;
8349;SDS011;60699;48.946;8.412;2023-08-06T08:28:04;1.23;;;0.97;;
8349;SDS011;60699;48.946;8.412;2023-08-06T08:30:33;1.10;;;1.10;;
8349;SDS011;60699;48.946;8.412;2023-08-06T08:33:00;1.13;;;1.03;;
8349;SDS011;60699;48.946;8.412;2023-08-06T08:35:27;1.23;;;1.17;;
8349;SDS011;60699;48.946;8.412;2023-08-06T08:37:54;1.20;;;0.90;;
8349;SDS011;60699;48.946;8.412;2023-08-06T08:40:21;2.23;;;0.90;;
8349;SDS011;60699;48.946;8.412;2023-08-06T08:42:50;1.27;;;1.17;;
8349;SDS011;60699;48.946;8.412;2023-08-06T08:45:17;1.10;;;1.00;;
8349;SDS011;60699;48.946;8.412;2023-08-06T08:47:48;3.17;;;1.00;;
8349;SDS011;60699;48.946;8.412;2023-08-06T08:50:15;2.90;;;1.00;;
8349;SDS011;60699;48.946;8.412;2023-08-06T08:52:44;1.10;;;1.00;;
8349;SDS011;60699;48.946;8.412;2023-08-06T08:55:14;0.97;;;0.90;;
8349;SDS011;60699;48.946;8.412;2023-08-06T08:57:41;2.90;;;1.10;;
8349;SDS011;60699;48.946;8.412;2023-08-06T09:00:08;1.53;;;0.90;;
8349;SDS011;60699;48.946;8.412;2023-08-06T09:02:35;1.33;;;1.23;;
8349;SDS011;60699;48.946;8.412;2023-08-06T09:05:05;1.63;;;1.00;;
8349;SDS011;60699;48.946;8.412;2023-08-06T09:07:34;1.13;;;1.07;;
8349;SDS011;60699;48.946;8.412;2023-08-06T09:10:02;1.17;;;1.10;;
8349;SDS011;60699;48.946;8.412;2023-08-06T09:12:30;1.13;;;1.03;;
8349;SDS011;60699;48.946;8.412;2023-08-06T09:14:57;1.10;;;1.00;;
8349;SDS011;60699;48.946;8.412;2023-08-06T09:17:24;1.97;;;1.03;;
8349;SDS011;60699;48.946;8.412;2023-08-06T09:19:53;1.25;;;1.15;;
8349;SDS011;60699;48.946;8.412;2023-08-06T09:22:21;1.10;;;1.00;;
8349;SDS011;60699;48.946;8.412;2023-08-06T09:24:48;2.55;;;1.50;;
8349;SDS011;60699;48.946;8.412;2023-08-06T09:27:16;1.97;;;1.13;;
8349;SDS011;60699;48.946;8.412;2023-08-06T09:29:43;2.17;;;1.00;;
8349;SDS011;60699;48.946;8.412;2023-08-06T09:32:11;1.00;;;1.00;;
8349;SDS011;60699;48.946;8.412;2023-08-06T09:34:39;1.97;;;0.90;;
8349;SDS011;60699;48.946;8.412;2023-08-06T09:37:08;1.93;;;1.13;;
8349;SDS011;60699;48.946;8.412;2023-08-06T09:39:37;1.08;;;1.08;;
8349;SDS011;60699;48.946;8.412;2023-08-06T09:42:04;1.27;;;1.17;;
8349;SDS011;60699;48.946;8.412;2023-08-06T09:44:32;1.30;;;1.20;;
8349;SDS011;60699;48.946;8.412;2023-08-06T09:47:00;1.37;;;1.20;;
8349;SDS011;60699;48.946;8.412;2023-08-06T09:49:28;1.27;;;1.17;;
8349;SDS011;60699;48.946;8.412;2023-08-06T09:51:55;1.63;;;1.13;;
8349;SDS011;60699;48.946;8.412;2023-08-06T09:54:23;1.03;;;0.93;;
8349;SDS011;60699;48.946;8.412;2023-08-06T09:56:53;1.20;;;1.10;;
8349;SDS011;60699;48.946;8.412;2023-08-06T09:59:20;1.00;;;0.90;;
8349;SDS011;60699;48.946;8.412;2023-08-06T10:01:48;2.30;;;1.00;;
8349;SDS011;60699;48.946;8.412;2023-08-06T10:04:15;1.97;;;0.90;;
8349;SDS011;60699;48.946;8.412;2023-08-06T10:06:43;1.37;;;1.07;;
8349;SDS011;60699;48.946;8.412;2023-08-06T10:09:12;1.10;;;0.87;;
8349;SDS011;60699;48.946;8.412;2023-08-06T10:11:39;1.23;;;1.13;;
8349;SDS011;60699;48.946;8.412;2023-08-06T10:14:08;1.10;;;1.00;;
8349;SDS011;60699;48.946;8.412;2023-08-06T10:16:36;0.80;;;0.80;;
8349;SDS011;60699;48.946;8.412;2023-08-06T10:19:05;1.10;;;1.10;;
8349;SDS011;60699;48.946;8.412;2023-08-06T10:21:34;1.42;;;1.15;;
8349;SDS011;60699;48.946;8.412;2023-08-06T10:24:01;1.20;;;1.10;;
8349;SDS011;60699;48.946;8.412;2023-08-06T10:26:28;2.25;;;1.55;;
8349;SDS011;60699;48.946;8.412;2023-08-06T10:28:56;1.10;;;1.00;;
8349;SDS011;60699;48.946;8.412;2023-08-06T10:34:18;1.27;;;1.17;;
8349;SDS011;60699;48.946;8.412;2023-08-06T10:36:45;1.43;;;1.20;;
8349;SDS011;60699;48.946;8.412;2023-08-06T10:39:13;1.03;;;1.03;;
8349;SDS011;60699;48.946;8.412;2023-08-06T10:41:41;0.90;;;0.90;;
8349;SDS011;60699;48.946;8.412;2023-08-06T10:44:09;1.73;;;1.63;;
8349;SDS011;60699;48.946;8.412;2023-08-06T10:46:36;1.27;;;1.17;;
8349;SDS011;60699;48.946;8.412;2023-08-06T10:49:04;2.27;;;1.20;;
8349;SDS011;60699;48.946;8.412;2023-08-06T10:51:33;1.47;;;1.37;;
8349;SDS011;60699;48.946;8.412;2023-08-06T10:54:01;1.48;;;1.38;;
8349;SDS011;60699;48.946;8.412;2023-08-06T10:56:29;1.70;;;1.60;;
8349;SDS011;60699;48.946;8.412;2023-08-06T10:58:56;1.27;;;1.17;;
8349;SDS011;60699;48.946;8.412;2023-08-06T11:01:23;1.65;;;1.55;;
8349;SDS011;60699;48.946;8.412;2023-08-06T11:03:51;1.60;;;1.50;;
8349;SDS011;60699;48.946;8.412;2023-08-06T11:06:18;1.80;;;1.70;;
8349;SDS011;60699;48.946;8.412;2023-08-06T11:08:48;1.45;;;1.35;;
8349;SDS011;60699;48.946;8.412;2023-08-06T11:11:16;3.83;;;2.17;;
8349;SDS011;60699;48.946;8.412;2023-08-06T11:13:44;1.70;;;1.60;;
8349;SDS011;60699;48.946;8.412;2023-08-06T11:16:11;1.70;;;1.60;;
8349;SDS011;60699;48.946;8.412;2023-08-06T11:18:39;2.17;;;1.98;;
8349;SDS011;60699;48.946;8.412;2023-08-06T11:21:07;1.92;;;1.80;;
8349;SDS011;60699;48.946;8.412;2023-08-06T11:23:35;1.80;;;1.70;;
8349;SDS011;60699;48.946;8.412;2023-08-06T11:26:03;2.08;;;1.90;;
8349;SDS011;60699;48.946;8.412;2023-08-06T11:28:30;1.77;;;1.67;;
8349;SDS011;60699;48.946;8.412;2023-08-06T11:30:58;2.47;;;2.20;;
8349;SDS011;60699;48.946;8.412;2023-08-06T11:33:27;1.85;;;1.70;;
8349;SDS011;60699;48.946;8.412;2023-08-06T11:35:55;2.42;;;2.10;;
8349;SDS011;60699;48.946;8.412;2023-08-06T11:38:24;2.35;;;2.15;;
8349;SDS011;60699;48.946;8.412;2023-08-06T11:40:51;3.43;;;1.80;;
8349;SDS011;60699;48.946;8.412;2023-08-06T11:43:19;2.05;;;1.85;;
8349;SDS011;60699;48.946;8.412;2023-08-06T11:45:47;4.22;;;2.45;;
8349;SDS011;60699;48.946;8.412;2023-08-06T11:48:14;1.60;;;1.50;;
8349;SDS011;60699;48.946;8.412;2023-08-06T11:50:41;2.17;;;2.00;;
8349;SDS011;60699;48.946;8.412;2023-08-06T11:53:11;2.45;;;2.25;;
8349;SDS011;60699;48.946;8.412;2023-08-06T11:55:38;2.55;;;2.35;;
8349;SDS011;60699;48.946;8.412;2023-08-06T11:58:05;5.97;;;2.78;;
8349;SDS011;60699;48.946;8.412;2023-08-06T12:00:34;2.58;;;2.20;;
8349;SDS011;60699;48.946;8.412;2023-08-06T12:03:04;2.70;;;1.75;;
8349;SDS011;60699;48.946;8.412;2023-08-06T12:05:31;1.63;;;1.52;;
8349;SDS011;60699;48.946;8.412;2023-08-06T12:07:59;2.15;;;1.95;;
8349;SDS011;60699;48.946;8.412;2023-08-06T12:10:26;1.85;;;1.65;;
8349;SDS011;60699;48.946;8.412;2023-08-06T12:12:53;1.43;;;1.33;;
8349;SDS011;60699;48.946;8.412;2023-08-06T12:15:20;3.05;;;2.00;;
8349;SDS011;60699;48.946;8.412;2023-08-06T12:17:48;1.60;;;1.50;;
8349;SDS011;60699;48.946;8.412;2023-08-06T12:20:16;1.50;;;1.40;;
8349;SDS011;60699;48.946;8.412;2023-08-06T12:22:43;2.63;;;2.23;;
8349;SDS011;60699;48.946;8.412;2023-08-06T12:25:11;2.17;;;1.85;;
8349;SDS011;60699;48.946;8.412;2023-08-06T12:27:39;3.10;;;1.97;;
8349;SDS011;60699;48.946;8.412;2023-08-06T12:30:09;2.83;;;2.15;;
8349;SDS011;60699;48.946;8.412;2023-08-06T12:32:39;1.80;;;1.70;;
8349;SDS011;60699;48.946;8.412;2023-08-06T12:35:08;2.72;;;1.60;;
8349;SDS011;60699;48.946;8.412;2023-08-06T12:37:35;1.58;;;1.48;;
8349;SDS011;60699;48.946;8.412;2023-08-06T12:40:03;2.55;;;2.10;;
8349;SDS011;60699;48.946;8.412;2023-08-06T12:42:31;1.73;;;1.63;;
8349;SDS011;60699;48.946;8.412;2023-08-06T12:44:59;3.60;;;1.63;;
8349;SDS011;60699;48.946;8.412;2023-08-06T12:47:27;2.45;;;1.60;;
8349;SDS011;60699;48.946;8.412;2023-08-06T12:49:54;1.43;;;1.20;;
8349;SDS011;60699;48.946;8.412;2023-08-06T12:52:24;2.20;;;1.87;;
8349;SDS011;60699;48.946;8.412;2023-08-06T12:54:51;2.30;;;1.50;;
8349;SDS011;60699;48.946;8.412;2023-08-06T12:57:22;1.50;;;1.30;;
8349;SDS011;60699;48.946;8.412;2023-08-06T12:59:49;1.47;;;1.37;;
8349;SDS011;60699;48.946;8.412;2023-08-06T13:02:18;4.50;;;1.63;;
8349;SDS011;60699;48.946;8.412;2023-08-06T13:04:46;1.70;;;1.43;;
8349;SDS011;60699;48.946;8.412;2023-08-06T13:07:16;1.40;;;1.30;;
8349;SDS011;60699;48.946;8.412;2023-08-06T13:09:45;2.47;;;1.17;;
8349;SDS011;60699;48.946;8.412;2023-08-06T13:12:15;1.10;;;1.00;;
8349;SDS011;60699;48.946;8.412;2023-08-06T13:14:44;1.50;;;1.20;;
8349;SDS011;60699;48.946;8.412;2023-08-06T13:17:11;1.30;;;1.20;;
8349;SDS011;60699;48.946;8.412;2023-08-06T13:19:39;1.97;;;1.20;;
8349;SDS011;60699;48.946;8.412;2023-08-06T13:22:06;1.40;;;1.30;;
8349;SDS011;60699;48.946;8.412;2023-08-06T13:24:34;1.50;;;1.40;;
8349;SDS011;60699;48.946;8.412;2023-08-06T13:27:08;1.23;;;1.13;;
8349;SDS011;60699;48.946;8.412;2023-08-06T13:29:35;1.30;;;1.20;;
8349;SDS011;60699;48.946;8.412;2023-08-06T13:32:03;3.53;;;1.20;;
8349;SDS011;60699;48.946;8.412;2023-08-06T13:34:30;1.20;;;1.10;;
8349;SDS011;60699;48.946;8.412;2023-08-06T13:36:57;3.40;;;1.37;;
8349;SDS011;60699;48.946;8.412;2023-08-06T13:39:24;1.33;;;1.23;;
8349;SDS011;60699;48.946;8.412;2023-08-06T13:41:51;2.43;;;1.40;;
8349;SDS011;60699;48.946;8.412;2023-08-06T13:44:19;4.07;;;1.40;;
8349;SDS011;60699;48.946;8.412;2023-08-06T13:46:47;1.20;;;1.20;;
8349;SDS011;60699;48.946;8.412;2023-08-06T13:49:14;1.67;;;1.57;;
8349;SDS011;60699;48.946;8.412;2023-08-06T13:51:42;1.60;;;1.40;;
8349;SDS011;60699;48.946;8.412;2023-08-06T13:54:09;2.13;;;1.93;;
8349;SDS011;60699;48.946;8.412;2023-08-06T13:56:36;1.50;;;1.40;;
8349;SDS011;60699;48.946;8.412;2023-08-06T13:59:04;1.17;;;1.17;;
8349;SDS011;60699;48.946;8.412;2023-08-06T14:01:32;1.03;;;1.00;;
8349;SDS011;60699;48.946;8.412;2023-08-06T14:04:01;1.00;;;1.00;;
8349;SDS011;60699;48.946;8.412;2023-08-06T14:06:28;3.93;;;1.30;;
8349;SDS011;60699;48.946;8.412;2023-08-06T14:08:55;1.30;;;1.20;;
8349;SDS011;60699;48.946;8.412;2023-08-06T14:11:23;1.30;;;1.20;;
8349;SDS011;60699;48.946;8.412;2023-08-06T14:13:50;1.50;;;1.40;;
8349;SDS011;60699;48.946;8.412;2023-08-06T14:16:18;1.40;;;1.30;;
8349;SDS011;60699;48.946;8.412;2023-08-06T14:18:46;1.27;;;1.27;;
8349;SDS011;60699;48.946;8.412;2023-08-06T14:21:14;1.30;;;1.20;;
8349;SDS011;60699;48.946;8.412;2023-08-06T14:23:42;1.37;;;1.27;;
8349;SDS011;60699;48.946;8.412;2023-08-06T14:26:12;1.20;;;1.10;;
8349;SDS011;60699;48.946;8.412;2023-08-06T14:28:40;1.27;;;1.20;;
8349;SDS011;60699;48.946;8.412;2023-08-06T14:31:07;2.17;;;2.07;;
8349;SDS011;60699;48.946;8.412;2023-08-06T14:36:06;1.20;;;1.10;;
8349;SDS011;60699;48.946;8.412;2023-08-06T14:38:34;1.30;;;1.20;;
8349;SDS011;60699;48.946;8.412;2023-08-06T14:41:03;1.50;;;1.40;;
8349;SDS011;60699;48.946;8.412;2023-08-06T14:43:31;2.00;;;1.50;;
8349;SDS011;60699;48.946;8.412;2023-08-06T14:45:59;1.30;;;1.20;;
8349;SDS011;60699;48.946;8.412;2023-08-06T14:48:26;1.63;;;1.30;;
8349;SDS011;60699;48.946;8.412;2023-08-06T14:50:55;1.00;;;1.00;;
8349;SDS011;60699;48.946;8.412;2023-08-06T14:53:24;1.40;;;1.30;;
8349;SDS011;60699;48.946;8.412;2023-08-06T14:55:51;1.40;;;1.30;;
8349;SDS011;60699;48.946;8.412;2023-08-06T14:58:19;1.87;;;1.47;;
8349;SDS011;60699;48.946;8.412;2023-08-06T15:00:48;1.40;;;1.20;;
8349;SDS011;60699;48.946;8.412;2023-08-06T15:03:17;2.30;;;1.20;;
8349;SDS011;60699;48.946;8.412;2023-08-06T15:05:46;1.63;;;1.40;;
8349;SDS011;60699;48.946;8.412;2023-08-06T15:10:55;0.93;;;0.93;;